createdAt,value
2023-06-29T00:00:27.292Z,2.00
2023-06-29T00:03:29.588Z,1.67
2023-06-29T00:06:37.878Z,2.10
2023-06-29T00:09:40.754Z,2.00
2023-06-29T00:12:43.252Z,2.10
2023-06-29T00:15:49.454Z,1.90
2023-06-29T00:18:51.453Z,1.70
2023-06-29T00:21:53.974Z,2.08
2023-06-29T00:25:00.746Z,2.72
2023-06-29T00:28:06.035Z,2.05
2023-06-29T00:31:07.886Z,1.90
2023-06-29T00:34:09.787Z,2.17
2023-06-29T00:37:11.882Z,2.30
2023-06-29T00:40:14.003Z,1.95
2023-06-29T00:43:19.240Z,2.15
2023-06-29T00:46:21.449Z,1.83
2023-06-29T00:49:23.397Z,2.10
2023-06-29T00:52:25.314Z,1.95
2023-06-29T00:55:27.884Z,2.45
2023-06-29T00:58:33.310Z,1.80
2023-06-29T01:01:35.147Z,1.80
2023-06-29T01:04:38.318Z,1.80
2023-06-29T01:07:51.227Z,1.77
2023-06-29T01:10:53.105Z,1.90
2023-06-29T01:13:54.994Z,1.60
2023-06-29T01:16:57.017Z,1.97
2023-06-29T01:19:59.182Z,2.17
2023-06-29T01:23:04.738Z,2.22
2023-06-29T01:26:06.795Z,2.20
2023-06-29T01:29:12.203Z,2.13
2023-06-29T01:32:15.492Z,2.00
2023-06-29T01:35:17.309Z,1.90
2023-06-29T01:38:27.826Z,2.05
2023-06-29T01:41:29.957Z,2.05
2023-06-29T01:44:35.279Z,1.90
2023-06-29T01:47:37.232Z,2.30
2023-06-29T01:50:39.134Z,2.00
2023-06-29T01:53:41.012Z,2.22
2023-06-29T01:56:42.843Z,2.10
2023-06-29T01:59:45.566Z,2.40
2023-06-29T02:02:47.519Z,2.20
2023-06-29T02:05:49.467Z,2.00
2023-06-29T02:08:51.344Z,2.05
2023-06-29T02:11:53.248Z,2.15
2023-06-29T02:14:57.956Z,2.10
2023-06-29T02:17:59.818Z,2.17
2023-06-29T02:21:01.664Z,2.17
2023-06-29T02:24:03.606Z,2.20
2023-06-29T02:27:05.723Z,2.03
2023-06-29T02:30:11.109Z,1.92
2023-06-29T02:33:12.972Z,2.20
2023-06-29T02:36:16.750Z,2.30
2023-06-29T02:39:18.718Z,1.73
2023-06-29T02:42:20.598Z,2.50
2023-06-29T02:45:22.461Z,2.08
2023-06-29T02:48:24.340Z,2.10
2023-06-29T02:51:26.266Z,2.10
2023-06-29T02:54:28.069Z,1.80
2023-06-29T02:57:29.925Z,1.70
2023-06-29T03:00:39.260Z,1.92
2023-06-29T03:03:41.145Z,1.87
2023-06-29T03:06:43.071Z,2.10
2023-06-29T03:09:44.908Z,1.70
2023-06-29T03:12:46.705Z,2.08
2023-06-29T03:15:52.417Z,1.70
2023-06-29T03:18:54.259Z,2.10
2023-06-29T03:21:56.186Z,2.07
2023-06-29T03:24:58.005Z,2.15
2023-06-29T03:27:59.882Z,1.77
2023-06-29T03:31:05.677Z,2.40
2023-06-29T03:34:11.168Z,4.13
2023-06-29T03:37:13.021Z,2.30
2023-06-29T03:40:14.992Z,2.20
2023-06-29T03:43:16.887Z,2.20
2023-06-29T03:46:22.336Z,1.88
2023-06-29T03:49:24.210Z,2.27
2023-06-29T03:52:26.027Z,2.17
2023-06-29T03:55:28.040Z,2.47
2023-06-29T03:58:29.880Z,2.50
2023-06-29T04:01:35.559Z,2.65
2023-06-29T04:04:37.877Z,2.10
2023-06-29T04:07:39.747Z,2.07
2023-06-29T04:10:41.778Z,2.00
2023-06-29T04:13:43.604Z,2.42
2023-06-29T04:16:45.542Z,2.30
2023-06-29T04:19:47.608Z,2.10
2023-06-29T04:22:49.421Z,2.63
2023-06-29T04:25:51.350Z,1.92
2023-06-29T04:28:53.209Z,1.70
2023-06-29T04:31:55.963Z,2.08
2023-06-29T04:34:57.862Z,2.77
2023-06-29T04:38:00.458Z,2.20
2023-06-29T04:41:05.588Z,2.10
2023-06-29T04:44:09.584Z,1.98
2023-06-29T04:47:15.032Z,2.30
2023-06-29T04:50:16.929Z,2.33
2023-06-29T04:53:18.810Z,2.57
2023-06-29T04:56:20.788Z,2.40
2023-06-29T04:59:24.046Z,2.10
2023-06-29T05:02:26.374Z,2.28
2023-06-29T05:05:28.392Z,2.23
2023-06-29T05:08:30.894Z,2.30
2023-06-29T05:11:34.635Z,2.38
2023-06-29T05:14:36.814Z,2.22
2023-06-29T05:17:39.065Z,2.33
2023-06-29T05:20:40.897Z,2.50
2023-06-29T05:23:42.788Z,2.00
2023-06-29T05:26:44.821Z,2.17
2023-06-29T05:29:48.310Z,2.22
2023-06-29T05:32:50.342Z,2.38
2023-06-29T05:35:52.274Z,2.03
2023-06-29T05:38:54.189Z,2.40
2023-06-29T05:41:56.287Z,2.28
2023-06-29T05:44:58.255Z,2.65
2023-06-29T05:48:00.141Z,1.98
2023-06-29T05:51:01.957Z,2.23
2023-06-29T05:54:04.927Z,2.20
2023-06-29T05:57:06.840Z,2.50
2023-06-29T06:00:12.393Z,2.10
2023-06-29T06:03:14.519Z,2.05
2023-06-29T06:06:16.673Z,2.20
2023-06-29T06:09:18.528Z,2.07
2023-06-29T06:12:20.448Z,1.85
2023-06-29T06:15:23.603Z,2.70
2023-06-29T06:18:25.459Z,2.00
2023-06-29T06:21:27.382Z,2.47
2023-06-29T06:24:29.366Z,2.20
2023-06-29T06:27:31.606Z,2.05
2023-06-29T06:30:33.560Z,2.20
2023-06-29T06:33:35.485Z,2.20
2023-06-29T06:36:37.346Z,2.80
2023-06-29T06:39:39.171Z,2.10
2023-06-29T06:42:41.089Z,2.17
2023-06-29T06:45:42.929Z,2.60
2023-06-29T06:48:47.663Z,2.50
2023-06-29T06:51:50.554Z,2.20
2023-06-29T06:54:52.914Z,2.10
2023-06-29T06:57:54.905Z,1.98
2023-06-29T07:00:56.790Z,2.08
2023-06-29T07:04:02.573Z,2.33
2023-06-29T07:07:04.966Z,1.90
2023-06-29T07:10:07.114Z,2.43
2023-06-29T07:13:09.028Z,2.25
2023-06-29T07:16:10.988Z,2.17
2023-06-29T07:25:23.549Z,3.00
2023-06-29T07:28:25.495Z,2.20
2023-06-29T07:31:28.364Z,2.70
2023-06-29T07:34:30.433Z,2.20
2023-06-29T07:37:32.750Z,2.27
2023-06-29T07:40:34.712Z,2.13
2023-06-29T07:43:36.599Z,2.05
2023-06-29T07:46:38.522Z,2.22
2023-06-29T07:49:44.824Z,1.77
2023-06-29T07:52:46.814Z,2.23
2023-06-29T07:55:48.715Z,2.17
2023-06-29T07:58:53.469Z,1.90
2023-06-29T08:01:55.890Z,2.30
2023-06-29T08:08:02.570Z,2.10
2023-06-29T08:11:04.502Z,2.37
2023-06-29T08:14:06.986Z,2.40
2023-06-29T08:17:09.010Z,2.38
2023-06-29T08:20:16.684Z,2.13
2023-06-29T08:23:18.651Z,2.10
2023-06-29T08:26:20.738Z,2.33
2023-06-29T08:29:22.853Z,2.10
2023-06-29T08:32:24.880Z,2.20
2023-06-29T08:35:26.783Z,2.00
2023-06-29T08:38:28.777Z,2.57
2023-06-29T08:41:30.664Z,2.30
2023-06-29T08:44:32.632Z,2.50
2023-06-29T08:47:36.354Z,2.17
2023-06-29T08:50:38.793Z,2.03
2023-06-29T08:53:44.108Z,2.30
2023-06-29T08:56:46.700Z,2.37
2023-06-29T08:59:49.793Z,2.75
2023-06-29T09:02:53.508Z,2.45
2023-06-29T09:05:57.259Z,2.42
2023-06-29T09:08:59.841Z,2.50
2023-06-29T09:12:02.130Z,2.00
2023-06-29T09:15:10.830Z,2.35
2023-06-29T09:18:13.110Z,2.67
2023-06-29T09:21:18.140Z,2.80
2023-06-29T09:24:20.410Z,2.93
2023-06-29T09:27:22.291Z,2.50
2023-06-29T09:30:24.161Z,2.13
2023-06-29T09:33:26.709Z,2.53
2023-06-29T09:36:31.352Z,2.65
2023-06-29T09:39:33.190Z,1.90
2023-06-29T09:42:37.965Z,2.87
2023-06-29T09:45:39.807Z,2.00
2023-06-29T09:51:55.031Z,2.50
2023-06-29T09:55:00.106Z,2.20
2023-06-29T09:58:02.095Z,2.65
2023-06-29T10:01:05.055Z,2.20
2023-06-29T10:04:07.741Z,2.30
2023-06-29T10:07:10.704Z,2.67
2023-06-29T10:10:12.992Z,2.08
2023-06-29T10:13:15.811Z,2.70
2023-06-29T10:16:19.050Z,2.47
2023-06-29T10:19:24.490Z,2.15
2023-06-29T10:22:26.529Z,2.10
2023-06-29T10:25:29.428Z,2.20
2023-06-29T10:28:31.417Z,2.20
2023-06-29T10:31:36.427Z,2.47
2023-06-29T10:35:03.079Z,2.00
2023-06-29T10:38:14.258Z,2.40
2023-06-29T10:41:29.230Z,2.05
2023-06-29T10:44:38.390Z,2.80
2023-06-29T10:47:41.266Z,2.27
2023-06-29T10:50:47.492Z,2.55
2023-06-29T10:53:50.278Z,2.00
2023-06-29T10:57:08.591Z,2.33
2023-06-29T11:00:11.922Z,2.20
2023-06-29T11:03:15.699Z,2.03
2023-06-29T11:06:32.702Z,2.22
2023-06-29T11:09:35.925Z,1.70
2023-06-29T11:12:39.020Z,2.10
2023-06-29T11:15:41.167Z,2.77
2023-06-29T11:18:49.405Z,2.43
2023-06-29T11:21:55.307Z,2.38
2023-06-29T11:24:57.469Z,1.92
2023-06-29T11:28:00.227Z,2.00
2023-06-29T11:31:02.326Z,2.30
2023-06-29T11:34:04.933Z,1.90
2023-06-29T11:37:15.427Z,1.75
2023-06-29T11:40:22.061Z,2.30
2023-06-29T11:46:28.221Z,1.97
2023-06-29T11:49:30.134Z,1.60
2023-06-29T11:52:32.588Z,1.70
2023-06-29T11:55:34.396Z,1.45
2023-06-29T11:58:36.444Z,1.98
2023-06-29T12:01:39.997Z,1.70
2023-06-29T12:04:58.020Z,1.93
2023-06-29T12:08:07.258Z,1.85
2023-06-29T12:11:16.346Z,2.40
2023-06-29T12:14:18.196Z,1.67
2023-06-29T12:20:26.413Z,2.00
2023-06-29T12:23:28.334Z,1.52
2023-06-29T12:26:30.669Z,1.90
2023-06-29T12:29:32.519Z,1.30
2023-06-29T12:32:34.363Z,2.00
2023-06-29T12:35:36.393Z,1.60
2023-06-29T12:38:38.595Z,1.55
2023-06-29T12:41:40.392Z,1.77
2023-06-29T12:44:42.228Z,1.80
2023-06-29T12:47:44.266Z,1.83
2023-06-29T12:50:46.324Z,1.90
2023-06-29T12:53:48.314Z,1.70
2023-06-29T12:56:50.139Z,1.90
2023-06-29T12:59:52.152Z,2.00
2023-06-29T13:02:54.511Z,1.70
2023-06-29T13:05:56.846Z,1.80
2023-06-29T13:08:58.929Z,1.60
2023-06-29T13:12:01.553Z,1.88
2023-06-29T13:15:03.614Z,1.70
2023-06-29T13:18:05.623Z,2.03
2023-06-29T13:21:07.543Z,2.37
2023-06-29T13:24:09.753Z,1.80
2023-06-29T13:27:14.670Z,1.83
2023-06-29T13:30:17.154Z,2.00
2023-06-29T13:33:19.027Z,2.60
2023-06-29T13:36:20.904Z,1.80
2023-06-29T13:39:22.796Z,1.75
2023-06-29T13:42:24.707Z,1.92
2023-06-29T13:45:27.197Z,2.00
2023-06-29T13:48:29.330Z,2.10
2023-06-29T13:51:32.527Z,1.90
2023-06-29T13:54:35.200Z,1.90
2023-06-29T13:57:37.100Z,2.03
2023-06-29T14:00:39.095Z,1.90
2023-06-29T14:03:41.206Z,2.43
2023-06-29T14:06:44.121Z,1.90
2023-06-29T14:09:46.377Z,1.70
2023-06-29T14:12:52.361Z,2.00
2023-06-29T14:15:54.393Z,1.90
2023-06-29T14:18:57.199Z,1.73
2023-06-29T14:21:59.249Z,1.70
2023-06-29T14:25:01.104Z,1.70
2023-06-29T14:28:02.968Z,1.63
2023-06-29T14:31:04.878Z,1.80
2023-06-29T14:34:06.838Z,1.97
2023-06-29T14:37:09.307Z,1.90
2023-06-29T14:40:11.696Z,1.65
2023-06-29T14:43:17.778Z,2.00
2023-06-29T14:46:19.779Z,1.73
2023-06-29T14:49:21.780Z,1.67
2023-06-29T14:52:25.394Z,1.80
2023-06-29T14:55:28.027Z,2.30
2023-06-29T14:58:32.976Z,1.80
2023-06-29T15:01:35.035Z,1.70
2023-06-29T15:04:37.233Z,1.70
2023-06-29T15:07:39.203Z,1.70
2023-06-29T15:10:41.124Z,1.63
2023-06-29T15:13:45.919Z,1.80
2023-06-29T15:16:47.769Z,2.17
2023-06-29T15:19:49.847Z,2.23
2023-06-29T15:22:51.866Z,1.77
2023-06-29T15:25:53.874Z,1.77
2023-06-29T15:28:59.116Z,1.58
2023-06-29T15:32:01.052Z,1.63
2023-06-29T15:35:04.343Z,1.53
2023-06-29T15:38:06.313Z,1.90
2023-06-29T15:41:08.651Z,1.63
2023-06-29T15:44:10.530Z,2.10
2023-06-29T15:47:12.439Z,1.77
2023-06-29T15:50:14.553Z,1.60
2023-06-29T15:53:16.557Z,1.73
2023-06-29T15:56:19.325Z,1.60
2023-06-29T15:59:21.355Z,1.58
2023-06-29T16:02:23.538Z,1.80
2023-06-29T16:05:25.688Z,1.57
2023-06-29T16:08:27.638Z,1.60
2023-06-29T16:11:29.666Z,1.70
2023-06-29T16:14:31.712Z,1.50
2023-06-29T16:17:33.765Z,1.67
2023-06-29T16:20:37.578Z,1.60
2023-06-29T16:23:40.997Z,1.70
2023-06-29T16:26:42.841Z,1.85
2023-06-29T16:29:44.747Z,2.00
2023-06-29T16:32:46.951Z,1.98
2023-06-29T16:35:48.974Z,1.80
2023-06-29T16:38:50.826Z,1.60
2023-06-29T16:41:53.190Z,1.83
2023-06-29T16:44:59.496Z,1.90
2023-06-29T16:48:01.677Z,1.67
2023-06-29T16:51:03.788Z,1.90
2023-06-29T16:54:05.782Z,1.70
2023-06-29T16:57:07.761Z,1.75
2023-06-29T17:00:14.443Z,1.85
2023-06-29T17:03:16.548Z,1.73
2023-06-29T17:06:18.612Z,1.87
2023-06-29T17:09:20.553Z,1.87
2023-06-29T17:12:22.446Z,1.60
2023-06-29T17:15:25.653Z,1.98
2023-06-29T17:18:27.774Z,2.00
2023-06-29T17:21:31.164Z,1.50
2023-06-29T17:24:33.000Z,1.70
2023-06-29T17:27:35.043Z,1.70
2023-06-29T17:30:39.878Z,1.50
2023-06-29T17:33:54.176Z,1.73
2023-06-29T17:36:56.920Z,1.80
2023-06-29T17:39:58.909Z,1.40
2023-06-29T17:43:00.787Z,1.50
2023-06-29T17:46:02.768Z,1.65
2023-06-29T17:49:04.648Z,1.38
2023-06-29T17:52:06.967Z,2.00
2023-06-29T17:55:09.495Z,1.60
2023-06-29T17:58:11.320Z,1.83
2023-06-29T18:01:13.568Z,2.28
2023-06-29T18:04:15.689Z,1.90
2023-06-29T18:07:17.870Z,2.00
2023-06-29T18:10:19.765Z,1.70
2023-06-29T18:13:21.759Z,1.90
2023-06-29T18:16:23.766Z,2.08
2023-06-29T18:19:25.843Z,1.60
2023-06-29T18:22:27.813Z,1.80
2023-06-29T18:25:29.714Z,1.70
2023-06-29T18:28:31.539Z,2.00
2023-06-29T18:31:37.047Z,1.95
2023-06-29T18:34:38.897Z,2.20
2023-06-29T18:37:45.979Z,2.40
2023-06-29T18:40:48.048Z,2.07
2023-06-29T18:43:49.926Z,2.25
2023-06-29T18:47:11.914Z,2.30
2023-06-29T18:50:13.801Z,2.10
2023-06-29T18:53:15.743Z,2.03
2023-06-29T18:56:21.218Z,1.90
2023-06-29T18:59:23.126Z,1.80
2023-06-29T19:02:30.476Z,2.28
2023-06-29T19:05:32.653Z,1.83
2023-06-29T19:08:34.620Z,2.03
2023-06-29T19:11:36.495Z,2.47
2023-06-29T19:14:38.888Z,2.28
2023-06-29T19:17:44.701Z,2.50
2023-06-29T19:20:46.878Z,2.55
2023-06-29T19:23:48.832Z,2.40
2023-06-29T19:26:50.671Z,2.17
2023-06-29T19:29:52.543Z,2.20
2023-06-29T19:32:54.747Z,2.20
2023-06-29T19:35:56.580Z,2.55
2023-06-29T19:38:58.773Z,2.47
2023-06-29T19:42:00.798Z,2.87
2023-06-29T19:45:03.343Z,2.72
2023-06-29T19:48:08.097Z,2.60
2023-06-29T19:51:10.090Z,2.70
2023-06-29T19:54:12.196Z,2.90
2023-06-29T19:57:14.142Z,3.17
2023-06-29T20:00:16.404Z,3.10
2023-06-29T20:03:19.634Z,2.83
2023-06-29T20:06:21.770Z,2.92
2023-06-29T20:09:23.869Z,2.93
2023-06-29T20:12:25.833Z,4.20
2023-06-29T20:15:27.751Z,3.55
2023-06-29T20:18:33.515Z,3.40
2023-06-29T20:21:35.341Z,3.03
2023-06-29T20:24:39.305Z,3.70
2023-06-29T20:27:41.196Z,3.17
2023-06-29T20:30:43.000Z,3.03
2023-06-29T20:33:44.987Z,2.97
2023-06-29T20:36:46.834Z,3.35
2023-06-29T20:39:48.748Z,2.80
2023-06-29T20:42:50.630Z,3.17
2023-06-29T20:45:52.741Z,2.90
2023-06-29T20:48:58.027Z,2.95
2023-06-29T20:52:00.373Z,2.90
2023-06-29T20:55:02.419Z,3.10
2023-06-29T20:58:04.265Z,3.30
2023-06-29T21:01:07.121Z,2.88
2023-06-29T21:04:10.690Z,2.55
2023-06-29T21:07:12.880Z,2.80
2023-06-29T21:10:14.780Z,2.93
2023-06-29T21:13:17.011Z,2.80
2023-06-29T21:16:19.261Z,2.90
2023-06-29T21:19:21.390Z,2.90
2023-06-29T21:22:23.675Z,2.83
2023-06-29T21:25:25.866Z,2.50
2023-06-29T21:28:28.016Z,2.60
2023-06-29T21:31:30.039Z,2.50
2023-06-29T21:34:36.668Z,2.75
2023-06-29T21:37:38.770Z,2.70
2023-06-29T21:40:40.648Z,3.10
2023-06-29T21:43:42.550Z,2.77
2023-06-29T21:46:44.659Z,2.95
2023-06-29T21:49:46.595Z,2.88
2023-06-29T21:52:48.495Z,2.67
2023-06-29T21:55:50.494Z,2.30
2023-06-29T21:58:52.383Z,2.50
2023-06-29T22:01:54.279Z,2.30
2023-06-29T22:04:59.343Z,2.92
2023-06-29T22:08:01.446Z,2.50
2023-06-29T22:11:04.151Z,3.17
2023-06-29T22:14:09.343Z,2.93
2023-06-29T22:17:11.673Z,3.00
2023-06-29T22:20:18.484Z,2.40
2023-06-29T22:23:20.410Z,2.88
2023-06-29T22:26:22.803Z,3.00
2023-06-29T22:29:24.741Z,2.90
2023-06-29T22:32:27.561Z,2.60
2023-06-29T22:35:34.760Z,2.88
2023-06-29T22:38:36.873Z,2.67
2023-06-29T22:41:38.785Z,2.80
2023-06-29T22:44:40.907Z,2.83
2023-06-29T22:47:42.820Z,3.20
2023-06-29T22:50:48.722Z,2.88
2023-06-29T22:53:53.536Z,2.65
2023-06-29T22:56:58.710Z,2.60
2023-06-29T23:00:00.585Z,2.60
2023-06-29T23:03:02.860Z,2.75
2023-06-29T23:06:04.793Z,2.47
2023-06-29T23:09:07.379Z,2.63
2023-06-29T23:12:10.108Z,2.30
2023-06-29T23:15:15.202Z,2.20
2023-06-29T23:18:17.118Z,2.80
2023-06-29T23:21:22.375Z,2.70
2023-06-29T23:24:28.756Z,2.80
2023-06-29T23:27:30.846Z,2.63
2023-06-29T23:30:32.741Z,2.60
2023-06-29T23:33:35.439Z,2.25
2023-06-29T23:36:41.709Z,2.63
2023-06-29T23:39:43.948Z,2.00
2023-06-29T23:42:45.836Z,2.43
2023-06-29T23:45:48.655Z,2.23
2023-06-29T23:48:51.059Z,2.13
2023-06-29T23:51:56.782Z,2.08
2023-06-29T23:54:58.686Z,2.30
2023-06-29T23:58:00.688Z,2.70
